createdAt,value
2023-04-08T00:00:54.231Z,5.23
2023-04-08T00:03:22.397Z,8.07
2023-04-08T00:05:50.464Z,7.07
2023-04-08T00:08:18.392Z,7.17
2023-04-08T00:10:46.292Z,7.97
2023-04-08T00:13:14.948Z,7.13
2023-04-08T00:15:42.992Z,7.37
2023-04-08T00:18:12.461Z,6.80
2023-04-08T00:20:40.528Z,8.27
2023-04-08T00:23:08.463Z,8.03
2023-04-08T00:25:36.440Z,8.13
2023-04-08T00:28:04.356Z,7.60
2023-04-08T00:30:32.303Z,7.47
2023-04-08T00:33:00.339Z,8.73
2023-04-08T00:35:30.198Z,6.70
2023-04-08T00:37:58.153Z,7.40
2023-04-08T00:40:26.069Z,7.97
2023-04-08T00:42:53.977Z,7.63
2023-04-08T00:45:22.044Z,6.70
2023-04-08T00:47:52.862Z,8.57
2023-04-08T00:50:21.404Z,8.73
2023-04-08T00:52:50.743Z,8.03
2023-04-08T00:55:18.688Z,7.50
2023-04-08T00:57:46.806Z,8.93
2023-04-08T01:00:16.105Z,10.47
2023-04-08T01:02:47.295Z,7.50
2023-04-08T01:05:19.331Z,6.50
2023-04-08T01:07:50.500Z,8.90
2023-04-08T01:10:22.440Z,10.30
2023-04-08T01:12:53.686Z,6.23
2023-04-08T01:15:22.249Z,10.23
2023-04-08T01:17:52.116Z,7.23
2023-04-08T01:20:20.442Z,9.00
2023-04-08T01:23:04.752Z,7.13
2023-04-08T01:25:34.290Z,9.50
2023-04-08T01:28:06.205Z,9.60
2023-04-08T01:30:35.802Z,8.87
2023-04-08T01:33:04.139Z,8.87
2023-04-08T01:35:32.548Z,5.63
2023-04-08T01:38:01.343Z,7.73
2023-04-08T01:40:29.281Z,8.17
2023-04-08T01:42:58.256Z,8.43
2023-04-08T01:45:27.831Z,7.13
2023-04-08T01:47:56.700Z,9.17
2023-04-08T01:50:25.260Z,8.80
2023-04-08T01:52:53.830Z,8.47
2023-04-08T01:55:21.916Z,9.70
2023-04-08T01:57:52.145Z,7.57
2023-04-08T02:00:23.465Z,12.20
2023-04-08T02:02:53.234Z,6.93
2023-04-08T02:05:21.523Z,8.43
2023-04-08T02:07:49.642Z,10.23
2023-04-08T02:10:17.673Z,7.97
2023-04-08T02:12:46.080Z,8.47
2023-04-08T02:15:14.980Z,8.17
2023-04-08T02:17:47.309Z,6.37
2023-04-08T02:20:19.864Z,6.43
2023-04-08T02:22:51.029Z,8.03
2023-04-08T02:25:22.268Z,7.70
2023-04-08T02:27:50.787Z,8.90
2023-04-08T02:30:19.498Z,8.13
2023-04-08T02:32:48.648Z,6.90
2023-04-08T02:35:18.568Z,4.67
2023-04-08T02:37:47.962Z,5.80
2023-04-08T02:40:26.525Z,9.57
2023-04-08T02:42:54.585Z,8.77
2023-04-08T02:45:22.718Z,9.87
2023-04-08T02:47:50.640Z,7.13
2023-04-08T02:50:19.916Z,6.23
2023-04-08T02:52:47.819Z,6.47
2023-04-08T02:55:15.729Z,8.83
2023-04-08T02:57:44.188Z,8.67
2023-04-08T03:00:13.371Z,10.40
2023-04-08T03:02:41.483Z,8.97
2023-04-08T03:05:10.457Z,10.20
2023-04-08T03:07:40.037Z,7.03
2023-04-08T03:10:09.203Z,8.53
2023-04-08T03:12:37.103Z,8.00
2023-04-08T03:15:06.277Z,9.00
2023-04-08T03:17:34.794Z,6.93
2023-04-08T03:20:04.860Z,7.53
2023-04-08T03:22:32.972Z,7.30
2023-04-08T03:25:02.286Z,9.10
2023-04-08T03:27:30.170Z,7.73
2023-04-08T03:29:58.135Z,7.20
2023-04-08T03:32:26.385Z,6.77
2023-04-08T03:34:54.319Z,6.17
2023-04-08T03:37:22.205Z,8.70
2023-04-08T03:39:50.103Z,6.90
2023-04-08T03:42:19.439Z,10.30
2023-04-08T03:44:47.332Z,6.90
2023-04-08T03:47:15.383Z,6.87
2023-04-08T03:49:43.286Z,9.63
2023-04-08T03:52:11.180Z,8.93
2023-04-08T03:54:39.097Z,7.57
2023-04-08T03:57:07.048Z,10.73
2023-04-08T03:59:36.517Z,10.10
2023-04-08T04:02:04.501Z,10.00
2023-04-08T04:04:32.661Z,7.70
2023-04-08T04:07:00.760Z,6.77
2023-04-08T04:09:28.680Z,9.30
2023-04-08T04:11:56.635Z,10.90
2023-04-08T04:14:24.505Z,9.27
2023-04-08T04:16:53.758Z,8.40
2023-04-08T04:19:21.814Z,9.03
2023-04-08T04:21:49.725Z,7.90
2023-04-08T04:24:17.649Z,7.77
2023-04-08T04:26:45.547Z,10.87
2023-04-08T04:29:13.440Z,8.20
2023-04-08T04:31:41.435Z,9.90
2023-04-08T04:34:10.757Z,9.63
2023-04-08T04:36:38.639Z,8.37
2023-04-08T04:39:06.554Z,13.13
2023-04-08T04:41:38.855Z,7.93
2023-04-08T04:44:07.112Z,8.83
2023-04-08T04:46:35.153Z,7.13
2023-04-08T04:49:03.120Z,8.87
2023-04-08T04:51:34.185Z,7.20
2023-04-08T04:54:02.109Z,7.73
2023-04-08T04:56:30.022Z,8.27
2023-04-08T04:58:57.948Z,9.60
2023-04-08T05:01:26.182Z,9.93
2023-04-08T05:03:54.135Z,7.77
2023-04-08T05:06:22.068Z,9.30
2023-04-08T05:08:52.011Z,9.30
2023-04-08T05:11:21.811Z,7.53
2023-04-08T05:13:49.898Z,9.73
2023-04-08T05:16:17.944Z,11.60
2023-04-08T05:18:45.953Z,10.77
2023-04-08T05:21:13.869Z,9.57
2023-04-08T05:23:41.753Z,7.97
2023-04-08T05:26:11.415Z,8.33
2023-04-08T05:28:39.308Z,10.60
2023-04-08T05:31:07.299Z,11.37
2023-04-08T05:33:35.232Z,11.17
2023-04-08T05:36:03.236Z,15.33
2023-04-08T05:38:31.139Z,8.77
2023-04-08T05:40:59.086Z,12.67
2023-04-08T05:43:28.367Z,9.03
2023-04-08T05:45:56.272Z,10.13
2023-04-08T05:48:24.237Z,8.20
2023-04-08T05:50:52.202Z,12.50
2023-04-08T05:53:20.093Z,16.73
2023-04-08T05:55:47.989Z,10.40
2023-04-08T05:58:16.087Z,11.83
2023-04-08T06:00:45.383Z,12.07
2023-04-08T06:03:13.542Z,12.03
2023-04-08T06:05:41.806Z,11.20
2023-04-08T06:08:09.732Z,12.17
2023-04-08T06:10:37.636Z,9.70
2023-04-08T06:13:05.566Z,12.07
2023-04-08T06:15:33.648Z,14.60
2023-04-08T06:18:03.053Z,15.50
2023-04-08T06:20:31.364Z,14.93
2023-04-08T06:22:59.252Z,12.27
2023-04-08T06:25:27.371Z,11.83
2023-04-08T06:27:55.275Z,10.63
2023-04-08T06:30:23.432Z,12.03
2023-04-08T06:32:51.430Z,11.50
2023-04-08T06:35:20.919Z,10.57
2023-04-08T06:37:48.804Z,14.10
2023-04-08T06:40:16.730Z,12.63
2023-04-08T06:42:44.624Z,12.33
2023-04-08T06:45:12.786Z,13.87
2023-04-08T06:47:40.742Z,20.60
2023-04-08T06:50:09.392Z,11.17
2023-04-08T06:52:38.696Z,15.47
2023-04-08T06:55:07.417Z,12.50
2023-04-08T06:57:35.359Z,11.70
2023-04-08T07:00:03.464Z,11.37
2023-04-08T07:02:31.459Z,15.33
2023-04-08T07:04:59.642Z,13.43
2023-04-08T07:07:27.579Z,13.50
2023-04-08T07:09:57.000Z,12.23
2023-04-08T07:12:25.016Z,12.50
2023-04-08T07:14:53.188Z,9.80
2023-04-08T07:17:21.135Z,14.17
2023-04-08T07:19:49.642Z,14.10
2023-04-08T07:22:17.542Z,12.43
2023-04-08T07:24:49.773Z,10.63
2023-04-08T07:27:19.151Z,14.47
2023-04-08T07:29:47.067Z,16.23
2023-04-08T07:32:15.091Z,13.10
2023-04-08T07:34:42.967Z,15.73
2023-04-08T07:37:10.866Z,13.63
2023-04-08T07:39:38.769Z,14.50
2023-04-08T07:42:07.150Z,12.70
2023-04-08T07:44:36.484Z,12.77
2023-04-08T07:47:04.414Z,15.20
2023-04-08T07:49:32.320Z,14.17
2023-04-08T07:52:00.220Z,13.83
2023-04-08T07:54:28.127Z,15.43
2023-04-08T07:56:56.995Z,13.23
2023-04-08T07:59:24.985Z,15.67
2023-04-08T08:01:54.566Z,13.00
2023-04-08T08:04:25.799Z,12.37
2023-04-08T08:06:53.873Z,14.07
2023-04-08T08:09:21.808Z,13.73
2023-04-08T08:11:49.672Z,12.67
2023-04-08T08:14:17.600Z,10.27
2023-04-08T08:16:45.751Z,15.83
2023-04-08T08:19:15.032Z,15.17
2023-04-08T08:21:42.953Z,15.83
2023-04-08T08:24:10.854Z,12.57
2023-04-08T08:26:39.033Z,14.00
2023-04-08T08:29:08.619Z,13.00
2023-04-08T08:31:36.919Z,19.80
2023-04-08T08:34:04.882Z,14.90
2023-04-08T08:36:34.829Z,15.90
2023-04-08T08:39:03.045Z,16.37
2023-04-08T08:41:35.261Z,16.40
2023-04-08T08:44:03.872Z,16.40
2023-04-08T08:46:31.827Z,16.83
2023-04-08T08:48:59.780Z,14.13
2023-04-08T08:51:29.076Z,12.97
2023-04-08T08:53:58.359Z,15.63
2023-04-08T08:56:26.459Z,11.80
2023-04-08T08:58:54.803Z,13.73
2023-04-08T09:01:33.184Z,13.00
2023-04-08T09:04:12.701Z,17.23
2023-04-08T09:06:41.293Z,13.67
2023-04-08T09:09:13.449Z,15.37
2023-04-08T09:11:42.592Z,14.27
2023-04-08T09:14:20.840Z,10.53
2023-04-08T09:16:48.863Z,11.30
2023-04-08T09:19:16.834Z,14.30
2023-04-08T09:21:45.028Z,11.00
2023-04-08T09:24:29.993Z,8.77
2023-04-08T09:26:57.917Z,13.23
2023-04-08T09:29:27.614Z,13.90
2023-04-08T09:31:57.730Z,13.73
2023-04-08T09:34:27.554Z,8.40
2023-04-08T09:36:56.711Z,11.50
2023-04-08T09:39:26.443Z,9.50
2023-04-08T09:41:54.976Z,13.87
2023-04-08T09:44:23.626Z,8.77
2023-04-08T09:46:58.108Z,9.43
2023-04-08T09:49:28.316Z,10.77
2023-04-08T09:52:01.068Z,9.77
2023-04-08T09:54:36.400Z,11.07
2023-04-08T09:57:11.610Z,11.57
2023-04-08T09:59:40.410Z,9.27
2023-04-08T10:02:11.428Z,10.37
2023-04-08T10:04:41.096Z,8.47
2023-04-08T10:07:09.957Z,12.37
2023-04-08T10:09:41.540Z,8.43
2023-04-08T10:12:09.489Z,10.57
2023-04-08T10:14:37.372Z,10.33
2023-04-08T10:17:36.885Z,8.47
2023-04-08T10:20:05.514Z,12.50
2023-04-08T10:22:49.853Z,10.90
2023-04-08T10:25:32.597Z,8.73
2023-04-08T10:28:01.629Z,9.43
2023-04-08T10:30:43.088Z,11.20
2023-04-08T10:33:12.411Z,10.97
2023-04-08T10:35:43.034Z,9.37
2023-04-08T10:38:11.754Z,9.37
2023-04-08T10:40:42.841Z,10.53
2023-04-08T10:43:11.527Z,9.57
2023-04-08T10:45:39.767Z,8.97
2023-04-08T10:48:14.968Z,9.23
2023-04-08T10:50:43.069Z,11.93
2023-04-08T10:53:11.767Z,8.97
2023-04-08T10:55:41.074Z,11.40
2023-04-08T10:58:09.765Z,12.27
2023-04-08T11:00:38.824Z,8.70
2023-04-08T11:03:08.750Z,11.23
2023-04-08T11:05:38.774Z,10.87
2023-04-08T11:08:07.055Z,10.50
2023-04-08T11:10:40.004Z,12.53
2023-04-08T11:13:09.902Z,11.53
2023-04-08T11:15:38.408Z,9.03
2023-04-08T11:18:06.883Z,8.37
2023-04-08T11:20:37.265Z,7.73
2023-04-08T11:23:05.287Z,9.90
2023-04-08T11:25:33.305Z,8.20
2023-04-08T11:28:03.404Z,12.60
2023-04-08T11:30:31.783Z,10.43
2023-04-08T11:32:59.797Z,11.30
2023-04-08T11:35:30.268Z,8.80
2023-04-08T11:37:58.725Z,10.27
2023-04-08T11:40:27.467Z,10.93
2023-04-08T11:42:55.388Z,9.47
2023-04-08T11:45:24.764Z,9.57
2023-04-08T11:47:53.045Z,10.57
2023-04-08T11:50:24.775Z,10.93
2023-04-08T11:52:53.275Z,14.93
2023-04-08T11:55:25.545Z,11.70
2023-04-08T11:57:53.860Z,9.67
2023-04-08T12:00:22.518Z,13.30
2023-04-08T12:02:52.697Z,13.87
2023-04-08T12:05:21.413Z,13.27
2023-04-08T12:07:49.319Z,12.73
2023-04-08T12:10:17.230Z,11.27
2023-04-08T12:12:45.144Z,11.97
2023-04-08T12:15:13.440Z,12.23
2023-04-08T12:17:41.458Z,12.83
2023-04-08T12:20:12.050Z,10.53
2023-04-08T12:22:40.501Z,11.97
2023-04-08T12:25:08.857Z,12.63
2023-04-08T12:27:36.739Z,11.50
2023-04-08T12:30:05.379Z,12.80
2023-04-08T12:32:33.641Z,11.63
2023-04-08T12:35:01.622Z,10.17
2023-04-08T12:37:30.951Z,10.93
2023-04-08T12:39:58.882Z,10.23
2023-04-08T12:42:28.029Z,11.37
2023-04-08T12:44:56.423Z,12.43
2023-04-08T12:47:25.655Z,11.40
2023-04-08T12:49:54.298Z,15.03
2023-04-08T12:52:23.057Z,14.07
2023-04-08T12:54:52.356Z,13.73
2023-04-08T12:57:20.250Z,11.50
2023-04-08T12:59:48.938Z,11.83
2023-04-08T13:02:16.884Z,10.77
2023-04-08T13:04:44.927Z,13.03
2023-04-08T13:07:12.840Z,13.50
2023-04-08T13:09:40.729Z,11.13
2023-04-08T13:12:10.719Z,12.07
2023-04-08T13:14:38.598Z,15.03
2023-04-08T13:17:06.605Z,9.43
2023-04-08T13:19:35.063Z,14.03
2023-04-08T13:22:03.121Z,15.33
2023-04-08T13:24:31.226Z,17.73
2023-04-08T13:26:59.321Z,14.70
2023-04-08T13:29:28.609Z,15.67
2023-04-08T13:31:56.553Z,15.43
2023-04-08T13:34:24.551Z,14.03
2023-04-08T13:36:52.534Z,13.33
2023-04-08T13:39:20.496Z,12.90
2023-04-08T13:41:49.102Z,15.47
2023-04-08T13:44:17.658Z,12.70
2023-04-08T13:46:46.935Z,16.37
2023-04-08T13:49:16.142Z,13.77
2023-04-08T13:51:44.049Z,13.40
2023-04-08T13:54:11.958Z,14.33
2023-04-08T13:56:39.887Z,14.70
2023-04-08T13:59:07.825Z,14.83
2023-04-08T14:01:35.842Z,14.07
2023-04-08T14:04:05.290Z,15.50
2023-04-08T14:06:33.767Z,13.60
2023-04-08T14:09:01.645Z,17.57
2023-04-08T14:11:29.519Z,14.33
2023-04-08T14:13:57.521Z,14.17
2023-04-08T14:16:25.641Z,16.63
2023-04-08T14:18:53.891Z,15.43
2023-04-08T14:21:23.348Z,14.70
2023-04-08T14:23:51.217Z,16.80
2023-04-08T14:26:19.094Z,16.50
2023-04-08T14:28:47.647Z,20.00
2023-04-08T14:31:15.847Z,15.70
2023-04-08T14:33:44.115Z,17.37
2023-04-08T14:36:12.272Z,17.07
2023-04-08T14:38:41.668Z,17.53
2023-04-08T14:41:09.690Z,18.13
2023-04-08T14:43:37.592Z,20.53
2023-04-08T14:46:05.666Z,23.83
2023-04-08T14:48:33.617Z,18.27
2023-04-08T14:51:01.723Z,20.97
2023-04-08T14:53:29.632Z,17.37
2023-04-08T14:55:58.890Z,17.60
2023-04-08T14:58:26.892Z,18.73
2023-04-08T15:00:55.698Z,17.30
2023-04-08T15:03:23.860Z,16.33
2023-04-08T15:05:51.909Z,17.47
2023-04-08T15:08:19.980Z,16.57
2023-04-08T15:10:47.889Z,16.80
2023-04-08T15:13:17.395Z,18.03
2023-04-08T15:15:45.559Z,16.63
2023-04-08T15:18:13.479Z,14.30
2023-04-08T15:20:41.536Z,17.73
2023-04-08T15:23:09.495Z,16.10
2023-04-08T15:25:37.400Z,13.23
2023-04-08T15:28:05.318Z,12.43
2023-04-08T15:30:36.216Z,15.80
2023-04-08T15:33:04.735Z,14.33
2023-04-08T15:35:33.014Z,17.00
2023-04-08T15:38:01.825Z,15.90
2023-04-08T15:40:32.208Z,17.63
2023-04-08T15:43:00.148Z,14.10
2023-04-08T15:45:28.578Z,14.10
2023-04-08T15:47:58.018Z,14.83
2023-04-08T15:50:29.838Z,12.90
2023-04-08T15:52:58.010Z,14.57
2023-04-08T15:55:25.972Z,16.90
2023-04-08T15:57:56.685Z,15.77
2023-04-08T16:00:24.877Z,17.93
2023-04-08T16:02:53.127Z,15.57
2023-04-08T16:05:22.674Z,13.10
2023-04-08T16:07:50.583Z,14.43
2023-04-08T16:10:18.698Z,15.00
2023-04-08T16:12:47.386Z,16.53
2023-04-08T16:15:15.391Z,16.10
2023-04-08T16:17:43.354Z,16.03
2023-04-08T16:20:12.322Z,17.00
2023-04-08T16:22:41.628Z,19.83
2023-04-08T16:25:10.511Z,14.37
2023-04-08T16:27:39.165Z,17.87
2023-04-08T16:30:08.313Z,20.93
2023-04-08T16:32:36.882Z,16.57
2023-04-08T16:35:05.133Z,17.40
2023-04-08T16:37:33.673Z,21.77
2023-04-08T16:40:04.409Z,19.70
2023-04-08T16:42:32.891Z,16.10
2023-04-08T16:45:01.290Z,17.97
2023-04-08T16:47:29.242Z,19.27
2023-04-08T16:49:57.170Z,16.00
2023-04-08T16:52:25.045Z,20.37
2023-04-08T16:54:53.517Z,22.27
2023-04-08T16:57:23.536Z,15.93
2023-04-08T16:59:51.568Z,20.53
2023-04-08T17:02:19.615Z,16.77
2023-04-08T17:04:50.134Z,20.97
2023-04-08T17:07:18.170Z,18.60
2023-04-08T17:09:51.372Z,18.87
2023-04-08T17:12:19.351Z,19.63
2023-04-08T17:14:49.332Z,18.17
2023-04-08T17:17:17.332Z,18.63
2023-04-08T17:19:45.240Z,18.20
2023-04-08T17:22:13.144Z,22.33
2023-04-08T17:24:41.062Z,18.67
2023-04-08T17:27:09.181Z,20.60
2023-04-08T17:29:37.260Z,18.90
2023-04-08T17:32:06.821Z,22.40
2023-04-08T17:34:34.713Z,20.10
2023-04-08T17:37:02.782Z,21.60
2023-04-08T17:39:31.610Z,19.33
2023-04-08T17:41:59.643Z,18.70
2023-04-08T17:44:29.746Z,19.87
2023-04-08T17:46:57.897Z,18.93
2023-04-08T17:49:28.991Z,22.53
2023-04-08T17:51:57.732Z,17.03
2023-04-08T17:54:25.648Z,19.20
2023-04-08T17:56:53.792Z,21.53
2023-04-08T17:59:21.835Z,23.50
2023-04-08T18:01:49.856Z,18.93
2023-04-08T18:04:17.997Z,19.73
2023-04-08T18:06:47.360Z,19.83
2023-04-08T18:09:15.323Z,25.87
2023-04-08T18:11:43.313Z,21.63
2023-04-08T18:14:12.557Z,23.33
2023-04-08T18:16:40.548Z,21.33
2023-04-08T18:19:08.716Z,21.80
2023-04-08T18:21:36.741Z,26.97
2023-04-08T18:24:08.672Z,23.93
2023-04-08T18:26:37.138Z,20.97
2023-04-08T18:29:05.052Z,22.30
2023-04-08T18:31:32.950Z,22.87
2023-04-08T18:34:00.866Z,25.83
2023-04-08T18:36:28.770Z,22.47
2023-04-08T18:38:57.257Z,27.07
2023-04-08T18:41:27.947Z,24.40
2023-04-08T18:43:56.604Z,21.03
2023-04-08T18:46:24.580Z,27.13
2023-04-08T18:48:52.489Z,31.17
2023-04-08T18:51:20.384Z,28.87
2023-04-08T18:53:48.381Z,29.20
2023-04-08T18:56:16.804Z,28.20
2023-04-08T18:58:47.102Z,27.77
2023-04-08T19:01:16.273Z,32.17
2023-04-08T19:03:44.542Z,37.57
2023-04-08T19:06:13.654Z,27.40
2023-04-08T19:08:41.570Z,30.00
2023-04-08T19:11:09.509Z,46.00
2023-04-08T19:13:37.647Z,32.50
2023-04-08T19:16:08.158Z,33.63
2023-04-08T19:18:36.143Z,27.23
2023-04-08T19:21:04.050Z,32.90
2023-04-08T19:23:32.132Z,31.70
2023-04-08T19:26:00.126Z,33.73
2023-04-08T19:28:28.015Z,31.70
2023-04-08T19:30:55.967Z,29.80
2023-04-08T19:33:27.502Z,32.47
2023-04-08T19:35:55.757Z,34.03
2023-04-08T19:38:23.959Z,35.27
2023-04-08T19:40:51.868Z,33.67
2023-04-08T19:43:19.758Z,36.63
2023-04-08T19:45:47.852Z,33.67
2023-04-08T19:48:15.761Z,33.43
2023-04-08T19:50:45.044Z,34.17
2023-04-08T19:53:12.928Z,32.97
2023-04-08T19:55:40.885Z,34.60
2023-04-08T19:58:08.794Z,32.77
2023-04-08T20:00:37.425Z,33.80
2023-04-08T20:03:06.274Z,34.80
2023-04-08T20:05:34.474Z,33.80
2023-04-08T20:08:03.829Z,35.60
2023-04-08T20:10:31.766Z,30.47
2023-04-08T20:12:59.717Z,34.00
2023-04-08T20:15:28.144Z,33.13
2023-04-08T20:17:56.565Z,34.97
2023-04-08T20:20:26.651Z,34.73
2023-04-08T20:22:55.617Z,36.00
2023-04-08T20:25:25.042Z,29.73
2023-04-08T20:27:53.149Z,33.63
2023-04-08T20:30:21.149Z,33.43
2023-04-08T20:32:49.191Z,35.27
2023-04-08T20:35:17.487Z,35.93
2023-04-08T20:37:46.291Z,32.60
2023-04-08T20:40:16.388Z,32.50
2023-04-08T20:42:47.047Z,32.90
2023-04-08T20:45:14.940Z,38.77
2023-04-08T20:47:44.625Z,32.53
2023-04-08T20:50:12.977Z,34.77
2023-04-08T20:52:40.931Z,32.50
2023-04-08T20:55:09.763Z,29.10
2023-04-08T20:57:37.649Z,29.47
2023-04-08T21:00:08.230Z,30.27
2023-04-08T21:02:36.457Z,33.20
2023-04-08T21:05:04.930Z,30.17
2023-04-08T21:07:32.828Z,32.07
2023-04-08T21:10:00.999Z,30.37
2023-04-08T21:12:28.938Z,33.43
2023-04-08T21:14:56.811Z,28.50
2023-04-08T21:19:54.060Z,34.30
2023-04-08T21:22:22.015Z,36.60
2023-04-08T21:24:49.924Z,30.90
2023-04-08T21:27:17.846Z,33.13
2023-04-08T21:29:45.753Z,30.17
2023-04-08T21:32:13.699Z,32.87
2023-04-08T21:34:43.406Z,37.97
2023-04-08T21:37:11.325Z,37.67
2023-04-08T21:39:39.236Z,41.77
2023-04-08T21:42:07.190Z,32.83
2023-04-08T21:44:35.094Z,35.90
2023-04-08T21:47:03.028Z,39.70
2023-04-08T21:49:31.621Z,44.13
2023-04-08T21:52:00.940Z,45.43
2023-04-08T21:54:28.811Z,42.37
2023-04-08T21:56:56.947Z,47.77
2023-04-08T21:59:25.002Z,47.33
2023-04-08T22:01:52.962Z,46.73
2023-04-08T22:04:21.081Z,51.17
2023-04-08T22:06:49.867Z,50.33
2023-04-08T22:09:19.481Z,53.97
2023-04-08T22:11:47.385Z,55.90
2023-04-08T22:14:15.577Z,54.77
2023-04-08T22:16:43.606Z,50.73
2023-04-08T22:19:11.776Z,58.27
2023-04-08T22:21:39.666Z,51.30
2023-04-08T22:24:07.734Z,56.07
2023-04-08T22:26:37.063Z,56.13
2023-04-08T22:29:05.036Z,57.97
2023-04-08T22:31:32.929Z,58.17
2023-04-08T22:34:00.818Z,60.40
2023-04-08T22:36:28.731Z,61.67
2023-04-08T22:38:56.611Z,55.27
2023-04-08T22:41:24.958Z,56.63
2023-04-08T22:43:54.210Z,52.17
2023-04-08T22:46:22.161Z,60.63
2023-04-08T22:48:50.462Z,61.60
2023-04-08T22:51:18.710Z,55.83
2023-04-08T22:53:46.722Z,63.53
2023-04-08T22:56:14.940Z,60.10
2023-04-08T22:58:42.926Z,57.70
2023-04-08T23:01:17.581Z,55.57
2023-04-08T23:03:45.629Z,63.73
2023-04-08T23:06:13.580Z,72.20
2023-04-08T23:08:41.584Z,62.77
2023-04-08T23:11:09.500Z,88.70
2023-04-08T23:13:37.893Z,89.20
2023-04-08T23:16:06.401Z,60.90
2023-04-08T23:18:36.003Z,70.30
2023-04-08T23:21:03.969Z,60.30
2023-04-08T23:23:34.668Z,62.97
2023-04-08T23:26:02.925Z,89.40
2023-04-08T23:28:31.094Z,60.43
2023-04-08T23:31:02.539Z,73.10
2023-04-08T23:33:31.329Z,66.23
2023-04-08T23:36:01.018Z,66.77
2023-04-08T23:38:28.987Z,64.03
2023-04-08T23:40:56.992Z,61.20
2023-04-08T23:43:24.896Z,64.07
2023-04-08T23:45:53.340Z,65.50
2023-04-08T23:48:21.218Z,74.20
2023-04-08T23:50:51.701Z,70.13
2023-04-08T23:53:21.300Z,70.13
2023-04-08T23:55:49.478Z,72.23
2023-04-08T23:58:17.421Z,74.73
